Terminal Aerodrome Forecast
Issued by NWS Tampa Bay Area, FL

Home | Current Version | Previous Version | Text Only | Print | Product List | Glossary On
Versions: 1 2 3 4 5 6 7 8 9 10 11 12 13 14 15 16 17 18 19 20 21 22 23 24 25
000
FTUS42 KTBW 252332
TAFTPA
TAF
KTPA 252332Z 2600/2624 08008KT P6SM SCT040 BKN250
     FM260300 08006KT P6SM SCT035 BKN200
     FM261800 22006KT P6SM SCT045 BKN250
     FM262000 28009KT P6SM VCTS BKN040CB BKN100 BKN250=

USA.gov is the U.S. government's official web portal to all federal, state and local government web resources and services.